North Spring Valley, Nevada Weather observations

Data are for 10 minute period ending at time listed.
 Day   Time   Solar   Ave.   Ave.  Ave.  Vector  Max.   Baro.   Total    
  of    of     Rad.   Air    Rel.  Wind   Wind   Wind  Press.  Precip.   
Year   Day            Temp.  Hum.  Speed  Dir.   Gust                    
2015   (PST)  Kw/m2    F      %     mph   deg.    mph    mb.     in.     
-------------------------------------------------------------------------
 116    0:00   0.00   37.2    78   11.0    22    15.8   820.3    0.00 
 116    0:10   0.00   36.8    79   10.0     9    17.3   820.4    0.00 
 116    0:20   0.00   36.6    76   12.1     4    16.8   820.4    0.00 
 116    0:30   0.00   36.3    77   10.6     1    14.2   820.4    0.00 
 116    0:40   0.00   36.0    77   12.4     5    19.4   820.4    0.00 
 116    0:50   0.00   35.2    80    9.8   358    14.0   820.6    0.00 
 116    1:00   0.00   35.1    80   11.1     3    16.3   820.6    0.00 
 116    1:10   0.00   35.1    78   11.3     7    16.1   820.6    0.00 
 116    1:20   0.00   35.2    77   10.9     2    14.5   820.7    0.00 
 116    1:30   0.00   34.9    77   10.2     4    15.0   820.7    0.00 
 116    1:40   0.00   34.4    78    8.6     2    11.7   820.7    0.00 
 116    1:50   0.00   34.3    79    7.9   358    10.7   820.8    0.00 
 116    2:00   0.00   34.1    79    7.5   336    11.6   821.0    0.00 
 116    2:10   0.00   33.7    80    6.1   337     9.1   821.0    0.00 
 116    2:20   100.00  99999.0   99999  99999.0   99999   99999.0   99999.0   99999.00 
 116    2:30   100.00  99999.0   99999  99999.0   99999   99999.0   99999.0   99999.00 
 116    2:40   100.00  99999.0   99999  99999.0   99999   99999.0   99999.0   99999.00 
 116    2:50   100.00  99999.0   99999  99999.0   99999   99999.0   99999.0   99999.00 
 116    3:00   100.00  99999.0   99999  99999.0   99999   99999.0   99999.0   99999.00 
 116    3:10   100.00  99999.0   99999  99999.0   99999   99999.0   99999.0   99999.00 
 116    3:20   0.00   33.3    77    6.9   342    10.2   821.4    0.00 
 116    3:30   0.00   33.4    77    6.2   338     8.8   821.5    0.00 
 116    3:40   0.00   33.5    76    6.6   331     9.6   821.7    0.00 
 116    3:50   0.00   33.3    77    5.6   337     8.0   821.7    0.00 
 116    4:00   0.00   33.3    77    6.6   326    10.2   821.8    0.00 
 116    4:10   0.00   33.4    77    6.1   317     9.1   821.9    0.00 
 116    4:20   0.00   33.1    77    5.5   313     7.8   822.1    0.00 
 116    4:30   0.00   32.8    78    5.9   318     8.6   822.2    0.00 
 116    4:40   0.00   32.6    79    6.8   348    11.3   822.2    0.00 
 116    4:50   0.01   32.4    79    6.4   329     9.1   822.4    0.00 
 116    5:00   0.01   32.4    78    6.2   333     9.4   822.5    0.00 
 116    5:10   0.02   32.9    76    6.5   339    11.9   822.6    0.00 
 116    5:20   0.07   34.2    72    9.0     1    13.4   822.7    0.00 
 116    5:30   0.10   34.8    71    7.8   349    11.9   822.9    0.00 
 116    5:40   0.13   35.5    70    8.7     6    13.5   823.0    0.00 
 116    5:50   0.16   36.1    69    7.7     3    11.2   823.1    0.00 
 116    6:00   0.19   36.8    68    8.4    12    15.1   823.3    0.00 
 116    6:10   0.23   37.3    66    8.2    13    11.7   823.5    0.00 
 116    6:20   0.26   38.0    65    9.2   359    14.3   823.7    0.00 
 116    6:30   0.30   38.4    63   12.3    27    19.2   823.7    0.00 
 116    6:40   0.34   38.9    63   12.9    22    20.2   823.9    0.00 
 116    6:50   0.38   39.3    62   13.2    19    17.6   824.1    0.00 
 116    7:00   0.42   39.8    60   15.4    20    20.5   824.2    0.00 
 116    7:10   0.46   39.9    59   15.0    23    20.3   824.3    0.00 
 116    7:20   0.50   40.5    59   14.7    16    19.7   824.5    0.00 
 116    7:30   0.55   41.4    56   14.6    12    20.9   824.6    0.00 
 116    7:40   0.60   41.4    54   15.8    20    21.5   824.6    0.00 
 116    7:50   0.65   42.0    54   15.5    17    22.2   824.7    0.00 
 116    8:00   0.67   42.7    47   14.0    19    19.3   824.9    0.00 
 116    8:10   0.70   42.7    49   16.4    23    22.6   824.8    0.00 
 116    8:20   0.73   42.9    47   14.5    27    20.0   824.9    0.00 
 116    8:30   0.65   43.2    47   13.4    20    20.3   825.1    0.00 
 116    8:40   0.69   43.2    46   13.1    16    21.9   825.2    0.00 
 116    8:50   0.79   43.2    45   11.0    25    17.5   825.3    0.00 
 116    9:00   0.38   43.0    45   10.6    21    14.9   825.4    0.00 
 116    9:10   0.36   42.3    41   10.4   358    16.6   825.4    0.00 
 116    9:20   0.37   42.7    38   10.8   359    18.6   825.5    0.00 
 116    9:30   0.43   43.2    36    9.1   336    14.8   825.7    0.00 
 116    9:40   0.47   43.5    38    8.9   345    16.9   825.7    0.00 
 116    9:50   0.40   43.8    38    9.8   356    19.0   825.8    0.00 
 116   10:00   0.48   43.9    38   10.6   357    18.0   826.0    0.00 
 116   10:10   0.42   43.7    37   10.3   335    16.3   826.0    0.00 
 116   10:20   0.72   44.1    37    9.9   356    15.7   826.1    0.00 
 116   10:30   1.00   45.7    35    9.6   349    20.1   826.1    0.00 
 116   10:40   0.39   44.7    36   11.1    11    19.2   826.1    0.00 
 116   10:50   0.43   44.5    34    8.8   344    13.9   826.2    0.00 
 116   11:00   0.56   45.4    33    9.4   346    19.2   826.2    0.00 
 116   11:10   1.05   47.9    31   14.3    12    22.3   826.2    0.00 
 116   11:20   0.54   46.4    29   13.4     2    20.1   826.4    0.00 
 116   11:30   0.55   45.9    29   11.7   350    17.6   826.4    0.00 
 116   11:40   0.92   47.4    27   12.2   359    18.0   826.4    0.00 
 116   11:50   1.11   48.5    26   11.1   345    22.9   826.3    0.00 
 116   12:00   1.07   48.4    28   11.1   323    18.7   826.3    0.00 
 116   12:10   1.15   48.5    30   10.1   294    17.5   826.3    0.00 
 116   12:20   1.10   49.0    28   10.1   331    18.3   826.4    0.00 
 116   12:30   0.75   48.7    25   12.7   353    24.2   826.5    0.00 
 116   12:40   0.70   48.6    26   11.4   336    19.0   826.6    0.00 
 116   12:50   0.97   50.0    27   11.6   332    17.8   826.6    0.00 
 116   13:00   0.29   47.8    24   11.3     7    19.1   826.7    0.00 
 116   13:10   1.05   49.1    24   11.6   325    19.9   826.7    0.00 
 116   13:20   0.96   49.8    24   10.1   352    16.6   826.7    0.00 
 116   13:30   0.97   50.7    26   12.3    10    26.5   826.8    0.00 
 116   13:40   0.64   49.5    24   11.0   359    20.1   827.0    0.00 
 116   13:50   0.66   49.2    24   12.0    10    20.1   827.0    0.00 
 116   14:00   0.67   50.3    24   13.7   355    23.2   827.0    0.00 
 116   14:10   0.72   49.5    24   12.8   349    22.2   826.9    0.00 
 116   14:20   0.85   50.5    23   14.9     2    24.8   826.9    0.00 
 116   14:30   0.78   51.1    24   13.7    10    23.3   827.0    0.00 
 116   14:40   0.73   51.3    23   14.1     5    22.2   827.0    0.00 
 116   14:50   0.76   50.8    22   11.2   348    18.7   826.9    0.00 
 116   15:00   0.72   51.2    22   13.3   348    18.6   826.9    0.00 
 116   15:10   0.58   50.7    22   13.2   354    19.6   826.9    0.00 
 116   15:20   0.65   50.9    23    9.8     1    20.5   826.9    0.00 
 116   15:30   0.62   51.1    21   13.7   340    23.5   826.9    0.00 
 116   15:40   0.58   51.4    21   10.5   337    19.9   827.0    0.00 
 116   15:50   0.54   51.2    20   11.0   335    17.2   827.0    0.00 
 116   16:00   0.50   51.2    20   13.6   339    20.1   827.1    0.00 
 116   16:10   0.46   51.0    20   12.4   344    18.2   827.2    0.00 
 116   16:20   0.42   51.0    20   10.9   331    16.4   827.2    0.00 
 116   16:30   0.38   51.4    20   10.6   336    15.5   827.3    0.00 
 116   16:40   0.34   51.0    20   10.7   348    17.0   827.3    0.00 
 116   16:50   0.30   50.6    20   12.4   345    19.4   827.4    0.00 
 116   17:00   0.27   50.4    21   12.2   342    18.6   827.5    0.00 
 116   17:10   0.23   50.0    20   12.7   347    18.6   827.6    0.00 
 116   17:20   0.20   49.6    20   14.2   351    19.4   827.6    0.00 
 116   17:30   0.16   49.3    21   11.8   351    18.4   827.6    0.00 
 116   17:40   0.04   48.1    21   12.9   349    18.3   827.7    0.00 
 116   17:50   0.02   47.2    22   11.2   344    15.7   827.8    0.00 
 116   18:00   0.02   46.5    24    9.5   340    15.3   827.9    0.00 
 116   18:10   0.01   45.6    26    8.2   337    11.7   828.0    0.00 
 116   18:20   0.01   44.6    28    7.0   326    11.2   828.1    0.00 
 116   18:30   0.00   43.9    29    7.2   326    10.4   828.4    0.00 
 116   18:40   0.00   43.0    31    7.2   322    11.2   828.4    0.00 
 116   18:50   0.00   43.4    30    7.5   337    10.8   828.6    0.00 
 116   19:00   0.00   43.1    30    6.9   323    10.3   828.7    0.00 
 116   19:10   0.00   41.0    35    5.2   317     7.9   828.7    0.00 
 116   19:20   0.00   41.0    34    5.6   340     7.7   828.9    0.00 
 116   19:30   0.00   40.9    34    5.6   340     8.8   829.2    0.00 
 116   19:40   0.00   41.2    34    6.6   334     9.2   829.3    0.00 
 116   19:50   0.00   42.3    32    7.2   335    10.8   829.4    0.00 
 116   20:00   0.00   42.1    32    6.6   340    14.0   829.5    0.00 
 116   20:10   0.00   41.5    34    6.1   343     8.3   829.6    0.00 
 116   20:20   0.00   41.7    33    6.6   343    11.2   829.8    0.00 
 116   20:30   0.00   40.8    35    5.8   345     8.2   829.9    0.00 
 116   20:40   0.00   40.6    36    6.8   341    12.2   830.0    0.00 
 116   20:50   0.00   41.0    36    7.0   344    11.1   830.0    0.00 
 116   21:00   0.00   40.4    37    6.8   343     9.9   830.2    0.00 
 116   21:10   0.00   39.3    40    5.3   336     8.3   830.2    0.00 
 116   21:20   0.00   38.0    43    3.8   349     5.0   830.2    0.00 
 116   21:30   0.00   36.1    47    3.4    30     5.2   830.3    0.00 
 116   21:40   0.00   35.3    49    4.1   342     6.1   830.4    0.00 
 116   21:50   0.00   35.6    50    5.4   345     8.0   830.5    0.00 
 116   22:00   0.00   36.3    48    6.4   342     8.8   830.5    0.00 
 116   22:10   0.00   36.0    48    5.7   342     8.8   830.7    0.00 

Return to North Spring Valley graphs page.


Western Regional Climate Center,wrcc@dri.edu